Time;durP1;ratioP1;P1;durP2;ratioP2;P2;SDS_P1;SDS_P2;PMS_P1;PMS_P2;Temp;Humidity;BMP_temperature;BMP_pressure;BME280_temperature;BME280_humidity;BME280_pressure;Samples;Min_cycle;Max_cycle;Signal;HPM_P1;HPM_P2
2023/01/09 00:02:01;;;;;;;4.93;0.85;;;;;;;3.94;77.73;97442.63;4960397;28;20573;-59
2023/01/09 00:04:28;;;;;;;10.00;1.52;;;;;;;3.97;78.06;97437.47;4963116;28;20055;-60
2023/01/09 00:06:55;;;;;;;4.90;1.92;;;;;;;3.99;77.91;97440.84;4961385;28;20043;-60
2023/01/09 00:09:23;;;;;;;4.75;1.55;;;;;;;4.05;77.86;97440.72;4959430;28;20622;-60
2023/01/09 00:11:50;;;;;;;5.80;1.65;;;;;;;4.06;77.96;97455.22;4958424;28;20055;-60
2023/01/09 00:14:17;;;;;;;6.57;1.90;;;;;;;4.10;77.69;97454.31;4956312;28;20050;-60
2023/01/09 00:16:44;;;;;;;6.10;3.28;;;;;;;4.14;78.62;97459.38;4969885;28;20043;-59
2023/01/09 00:19:11;;;;;;;4.47;1.65;;;;;;;4.17;78.26;97454.19;4966917;28;20051;-59
2023/01/09 00:21:38;;;;;;;5.90;2.38;;;;;;;4.18;78.04;97455.88;4961994;28;20134;-60
2023/01/09 00:24:05;;;;;;;9.23;1.70;;;;;;;4.21;78.18;97460.94;4964879;28;20125;-60
2023/01/09 00:26:32;;;;;;;2.13;1.73;;;;;;;4.18;77.97;97464.41;4957825;28;20047;-59
2023/01/09 00:28:59;;;;;;;7.65;2.60;;;;;;;4.17;78.31;97464.44;4964511;28;20105;-60
2023/01/09 00:31:26;;;;;;;4.70;1.73;;;;;;;4.13;78.33;97462.81;4949239;28;20071;-60
2023/01/09 00:34:04;;;;;;;3.72;1.90;;;;;;;4.08;78.17;97460.31;4947295;28;20130;-60
2023/01/09 00:36:32;;;;;;;6.45;1.92;;;;;;;4.07;77.90;97464.63;4958279;28;20137;-59
2023/01/09 00:38:58;;;;;;;4.82;2.17;;;;;;;4.04;78.09;97459.53;4960982;28;20055;-60
2023/01/09 00:41:32;;;;;;;6.25;2.17;;;;;;;4.01;78.90;97469.00;4959971;28;22285;-60
2023/01/09 00:44:03;;;;;;;2.67;1.85;;;;;;;3.99;78.32;97467.31;4959618;28;20079;-60
2023/01/09 00:46:33;;;;;;;5.07;2.25;;;;;;;3.98;78.22;97468.19;4957041;28;20110;-60
2023/01/09 00:49:04;;;;;;;6.85;2.25;;;;;;;3.98;78.45;97475.00;4961775;28;20043;-59
2023/01/09 00:51:30;;;;;;;7.05;1.90;;;;;;;3.97;78.13;97470.75;4960570;28;20054;-60
2023/01/09 00:53:57;;;;;;;5.35;1.45;;;;;;;3.96;78.36;97475.03;4962748;28;20081;-59
2023/01/09 00:56:24;;;;;;;8.45;2.20;;;;;;;3.97;78.41;97479.31;4963565;28;20159;-60
2023/01/09 00:58:52;;;;;;;3.75;1.98;;;;;;;3.97;78.50;97478.44;4962438;28;20046;-60
2023/01/09 01:01:18;;;;;;;5.53;1.98;;;;;;;3.97;78.36;97488.69;4963393;28;20105;-60
2023/01/09 01:03:45;;;;;;;6.75;1.50;;;;;;;3.97;78.56;97488.69;4962792;28;20047;-59
2023/01/09 01:08:58;;;;;;;5.78;2.08;;;;;;;3.95;78.69;97496.41;4979035;28;20609;-59
2023/01/09 01:11:25;;;;;;;5.57;2.00;;;;;;;3.96;78.44;97502.38;4963038;28;20129;-59
2023/01/09 01:13:52;;;;;;;11.20;2.17;;;;;;;3.96;78.44;97504.94;4960047;28;20097;-59
2023/01/09 01:16:19;;;;;;;5.63;2.65;;;;;;;3.96;78.68;97502.38;4965756;28;20101;-59
2023/01/09 01:18:45;;;;;;;9.20;2.10;;;;;;;3.96;78.95;97513.44;4959551;28;20039;-60
2023/01/09 01:21:14;;;;;;;5.93;2.20;;;;;;;3.97;78.83;97511.75;4954645;28;20054;-60
2023/01/09 01:23:40;;;;;;;5.88;1.98;;;;;;;3.97;78.54;97516.88;4958300;28;20093;-60
2023/01/09 01:26:10;;;;;;;4.70;2.28;;;;;;;3.98;78.63;97521.09;4958427;28;20158;-60
2023/01/09 01:28:38;;;;;;;4.10;1.90;;;;;;;3.98;78.62;97527.09;4956133;28;20051;-59
2023/01/09 01:31:05;;;;;;;3.22;2.10;;;;;;;3.98;78.65;97537.34;4957892;28;20078;-59
2023/01/09 01:33:33;;;;;;;4.78;2.20;;;;;;;3.99;78.47;97538.19;4960980;28;20051;-60
2023/01/09 01:36:06;;;;;;;5.90;1.92;;;;;;;3.99;78.87;97538.19;4955280;28;20105;-60
2023/01/09 01:38:34;;;;;;;6.15;2.28;;;;;;;4.00;78.88;97550.13;4956438;28;20494;-59
2023/01/09 01:41:01;;;;;;;5.18;2.30;;;;;;;4.00;78.90;97545.00;4959564;28;20096;-60
2023/01/09 01:43:48;;;;;;;5.97;2.28;;;;;;;3.99;78.83;97561.25;4956439;28;20141;-60
2023/01/09 01:46:16;;;;;;;9.13;1.85;;;;;;;4.02;79.15;97563.72;4956199;28;20074;-60
2023/01/09 01:48:44;;;;;;;4.10;1.92;;;;;;;4.06;79.07;97560.25;4956998;28;20121;-60
2023/01/09 01:51:14;;;;;;;10.38;2.15;;;;;;;4.07;79.10;97561.97;4955983;28;20051;-60
2023/01/09 01:53:47;;;;;;;8.05;2.40;;;;;;;4.08;79.45;97573.88;4956986;28;20061;-60
2023/01/09 01:56:19;;;;;;;3.13;2.20;;;;;;;4.10;79.19;97572.16;4959440;28;20729;-60
2023/01/09 02:01:58;;;;;;;2.97;1.02;;;;;;;4.14;79.27;97595.16;5020491;27;21016;-59
2023/01/09 02:04:26;;;;;;;3.97;1.38;;;;;;;4.17;79.66;97605.34;5010781;28;20056;-59
2023/01/09 02:06:55;;;;;;;5.13;0.73;;;;;;;4.17;79.83;97592.53;5009202;28;20046;-59
2023/01/09 02:09:24;;;;;;;2.88;0.95;;;;;;;4.18;79.77;97604.47;5009441;28;20049;-59
2023/01/09 02:11:55;;;;;;;2.40;1.15;;;;;;;4.22;79.68;97612.09;5002113;28;20137;-59
2023/01/09 02:14:25;;;;;;;3.38;0.73;;;;;;;4.22;79.56;97612.09;5003194;28;20579;-59
2023/01/09 02:20:07;;;;;;;4.40;1.77;;;;;;;4.23;79.63;97618.06;5110547;27;20402;-59
2023/01/09 02:28:23;;;;;;;3.47;0.80;;;;;;;4.27;79.49;97629.97;5053934;27;20402;-59
2023/01/09 02:31:00;;;;;;;2.53;0.70;;;;;;;4.28;79.56;97639.34;4989546;28;20041;-59
2023/01/09 02:41:37;;;;;;;6.30;1.70;;;;;;;4.32;79.96;97656.34;5020069;27;20415;-59
2023/01/09 02:44:22;;;;;;;4.43;1.48;;;;;;;4.31;79.73;97661.50;5016255;28;20700;-59
2023/01/09 02:50:02;;;;;;;5.68;2.42;;;;;;;4.34;80.29;97662.31;5031258;27;20406;-59
2023/01/09 02:58:14;;;;;;;7.30;2.53;;;;;;;4.37;79.85;97672.53;5114928;27;20402;-60
2023/01/09 03:01:05;;;;;;;7.20;2.10;;;;;;;4.39;80.15;97671.66;5087091;28;20102;-59
2023/01/09 03:03:41;;;;;;;2.88;1.80;;;;;;;4.42;80.24;97674.16;5079052;28;20097;-59
2023/01/09 03:06:20;;;;;;;2.70;1.63;;;;;;;4.45;79.84;97679.22;5077284;28;20044;-59
2023/01/09 03:08:52;;;;;;;6.95;1.77;;;;;;;4.46;80.03;97675.81;5060755;28;20098;-59
2023/01/09 03:11:20;;;;;;;3.28;1.80;;;;;;;4.46;79.82;97680.94;5058013;28;20115;-59
2023/01/09 03:13:54;;;;;;;7.10;2.03;;;;;;;4.47;79.79;97687.75;5053376;28;20052;-59
2023/01/09 03:16:28;;;;;;;4.53;2.20;;;;;;;4.48;79.94;97679.16;5056009;28;20132;-60
2023/01/09 03:18:57;;;;;;;3.78;1.85;;;;;;;4.49;79.98;97696.22;5054099;28;20101;-59
2023/01/09 03:21:25;;;;;;;5.28;2.08;;;;;;;4.51;80.20;97702.19;5058563;28;20044;-59
2023/01/09 03:23:57;;;;;;;5.20;1.80;;;;;;;4.50;79.99;97703.06;5059982;28;20048;-59
2023/01/09 03:26:25;;;;;;;3.67;1.65;;;;;;;4.48;80.21;97709.94;5063794;28;20070;-60
2023/01/09 03:28:52;;;;;;;5.10;2.22;;;;;;;4.50;80.03;97713.34;5059497;28;20036;-59
2023/01/09 03:31:18;;;;;;;4.45;1.77;;;;;;;4.49;80.22;97722.72;5061332;28;20142;-60
2023/01/09 03:33:45;;;;;;;4.80;1.95;;;;;;;4.49;80.19;97712.47;5071351;28;20385;-59
2023/01/09 03:36:13;;;;;;;2.65;1.42;;;;;;;4.49;79.60;97711.63;5051410;28;20123;-59
2023/01/09 03:38:40;;;;;;;5.50;1.75;;;;;;;4.50;79.87;97718.47;5059298;28;20084;-60
2023/01/09 03:41:07;;;;;;;8.60;1.65;;;;;;;4.44;80.44;97718.53;5053457;28;20067;-59
2023/01/09 03:43:34;;;;;;;2.08;1.80;;;;;;;4.45;79.87;97720.22;5064829;28;20143;-59
2023/01/09 03:46:01;;;;;;;2.70;2.22;;;;;;;4.45;80.17;97730.47;5065388;28;20129;-59
2023/01/09 03:48:28;;;;;;;2.88;1.88;;;;;;;4.43;80.26;97729.69;5087268;28;20044;-60
2023/01/09 03:50:55;;;;;;;4.88;2.05;;;;;;;4.41;80.15;97739.94;5080788;28;20079;-59
2023/01/09 03:53:23;;;;;;;5.80;1.80;;;;;;;4.39;79.67;97735.72;5072244;28;20457;-59
2023/01/09 03:55:52;;;;;;;2.78;1.15;;;;;;;4.38;80.09;97740.00;5086396;28;20052;-59
2023/01/09 03:58:19;;;;;;;3.00;1.58;;;;;;;4.35;80.27;97746.00;5078885;28;20075;-59
2023/01/09 04:00:48;;;;;;;4.18;1.60;;;;;;;4.33;80.19;97742.59;5081401;28;20563;-59
2023/01/09 04:03:18;;;;;;;3.80;1.17;;;;;;;4.30;80.35;97752.94;5073372;28;20040;-59
2023/01/09 04:05:48;;;;;;;1.35;0.70;;;;;;;4.30;80.39;97763.19;5074341;28;20486;-59
2023/01/09 04:08:15;;;;;;;7.18;1.75;;;;;;;4.29;80.11;97751.22;5068697;28;20225;-59
2023/01/09 04:10:44;;;;;;;5.00;1.52;;;;;;;4.32;80.12;97756.31;5064684;28;20136;-59
2023/01/09 04:13:11;;;;;;;2.33;1.60;;;;;;;4.29;80.19;97758.91;5060123;28;20503;-59
2023/01/09 04:15:38;;;;;;;5.30;1.58;;;;;;;4.31;80.46;97764.88;5065863;28;20076;-60
2023/01/09 04:18:05;;;;;;;2.88;2.05;;;;;;;4.30;80.79;97755.50;5063106;28;20036;-58
2023/01/09 04:20:32;;;;;;;4.88;1.73;;;;;;;4.29;80.37;97768.31;5072121;28;20051;-59
2023/01/09 04:22:58;;;;;;;4.35;1.77;;;;;;;4.27;80.54;97765.78;5060349;28;20051;-60
2023/01/09 04:25:26;;;;;;;4.88;2.33;;;;;;;4.28;80.20;97770.03;5059195;28;20130;-60
2023/01/09 04:27:52;;;;;;;2.42;1.95;;;;;;;4.28;80.72;97774.28;5069777;28;20056;-59
2023/01/09 04:30:19;;;;;;;2.17;1.75;;;;;;;4.29;80.85;97781.13;5064365;28;20111;-60
2023/01/09 04:32:46;;;;;;;4.47;2.03;;;;;;;4.28;80.48;97785.41;5061699;28;20052;-59
2023/01/09 04:35:12;;;;;;;4.18;2.20;;;;;;;4.28;81.12;97789.66;5059101;28;20467;-59
2023/01/09 04:37:39;;;;;;;7.55;2.15;;;;;;;4.30;80.53;97788.81;5059173;28;20095;-60
2023/01/09 04:40:09;;;;;;;2.75;1.67;;;;;;;4.26;80.39;97787.16;5068721;28;20044;-59
2023/01/09 04:42:38;;;;;;;3.55;1.67;;;;;;;4.28;80.61;97787.97;5061604;28;20102;-60
2023/01/09 04:45:06;;;;;;;2.10;1.83;;;;;;;4.29;80.87;97792.22;5057695;28;20040;-60
2023/01/09 04:47:33;;;;;;;6.18;2.83;;;;;;;4.27;80.98;97800.81;5066273;28;20500;-60
2023/01/09 04:50:00;;;;;;;2.83;1.83;;;;;;;4.26;80.18;97792.28;5068002;28;20095;-59
2023/01/09 04:52:27;;;;;;;1.92;0.80;;;;;;;4.26;80.13;97794.84;5065731;28;20451;-59
2023/01/09 04:54:53;;;;;;;6.65;1.85;;;;;;;4.27;80.48;97803.38;5063274;28;20056;-60
2023/01/09 04:57:20;;;;;;;3.90;1.92;;;;;;;4.24;80.52;97810.25;5067651;28;20809;-60
2023/01/09 04:59:46;;;;;;;5.35;1.67;;;;;;;4.26;80.43;97807.66;5066824;28;20110;-59
2023/01/09 05:02:13;;;;;;;3.33;1.50;;;;;;;4.25;80.35;97808.50;5061510;28;20040;-60
2023/01/09 05:04:40;;;;;;;2.03;1.70;;;;;;;4.24;80.72;97809.38;5061477;28;20519;-59
2023/01/09 05:07:06;;;;;;;7.63;1.50;;;;;;;4.23;80.67;97823.91;5061451;28;20041;-61
2023/01/09 05:09:34;;;;;;;4.50;2.20;;;;;;;4.21;80.78;97815.41;5070761;28;20040;-60
2023/01/09 05:12:01;;;;;;;2.45;1.95;;;;;;;4.24;80.59;97824.75;5067638;28;20684;-59
2023/01/09 05:14:28;;;;;;;3.55;1.75;;;;;;;4.23;80.44;97823.06;5069633;28;20044;-59
2023/01/09 05:16:55;;;;;;;3.72;2.00;;;;;;;4.23;80.39;97820.50;5056732;28;20350;-60
2023/01/09 05:19:22;;;;;;;3.85;1.80;;;;;;;4.22;80.78;97821.38;5065086;28;20052;-59
2023/01/09 05:21:49;;;;;;;6.07;1.73;;;;;;;4.22;80.86;97821.38;5061407;28;20044;-60
2023/01/09 05:24:15;;;;;;;4.22;1.38;;;;;;;4.19;80.66;97826.53;5069083;28;20057;-60
2023/01/09 05:26:42;;;;;;;2.17;1.98;;;;;;;4.21;80.71;97822.22;5073944;28;20483;-60
2023/01/09 05:29:09;;;;;;;1.58;0.32;;;;;;;4.20;81.02;97823.09;5060904;28;20623;-60
2023/01/09 05:31:36;;;;;;;3.22;1.75;;;;;;;4.19;80.22;97827.38;5065618;28;20048;-59
2023/01/09 05:34:03;;;;;;;4.45;2.05;;;;;;;4.22;80.60;97831.63;5064593;28;20041;-60
2023/01/09 05:36:29;;;;;;;5.00;1.67;;;;;;;4.22;80.48;97831.63;5064899;28;20076;-60
2023/01/09 05:38:57;;;;;;;5.05;2.15;;;;;;;4.20;81.01;97823.09;5065289;28;20553;-59
2023/01/09 05:41:25;;;;;;;3.10;2.60;;;;;;;4.23;81.04;97833.31;5062869;28;20394;-60
2023/01/09 05:43:51;;;;;;;1.17;1.17;;;;;;;4.26;80.70;97835.00;5066827;28;20055;-60
2023/01/09 05:46:18;;;;;;;2.65;0.75;;;;;;;4.25;81.26;97841.81;5064440;28;20449;-59
2023/01/09 05:48:45;;;;;;;4.47;2.30;;;;;;;4.28;80.71;97856.31;5064736;28;20063;-60
2023/01/09 05:51:11;;;;;;;8.57;1.98;;;;;;;4.28;81.08;97857.16;5068117;28;20106;-59
2023/01/09 05:53:38;;;;;;;2.10;2.00;;;;;;;4.28;81.74;97867.41;5061662;28;20503;-59
2023/01/09 05:56:05;;;;;;;6.75;1.70;;;;;;;4.30;80.31;97870.81;5057556;28;20118;-60
2023/01/09 05:58:32;;;;;;;4.47;2.20;;;;;;;4.29;80.66;97878.53;5064915;28;20044;-59
2023/01/09 06:00:58;;;;;;;3.47;1.67;;;;;;;4.29;80.83;97879.34;5061811;28;20099;-60
2023/01/09 06:03:25;;;;;;;6.70;1.65;;;;;;;4.27;80.81;97870.84;5070888;28;20123;-60
2023/01/09 06:05:51;;;;;;;3.50;2.53;;;;;;;4.26;80.15;97871.72;5068227;28;20048;-60
2023/01/09 06:08:18;;;;;;;4.97;1.58;;;;;;;4.25;81.21;97882.81;5062061;28;20036;-59
2023/01/09 06:10:45;;;;;;;4.78;1.27;;;;;;;4.23;80.51;97889.69;5062532;28;20048;-59
2023/01/09 06:13:12;;;;;;;5.70;1.52;;;;;;;4.23;81.34;97884.56;5066650;28;20072;-60
2023/01/09 06:15:39;;;;;;;4.13;1.85;;;;;;;4.22;80.92;97893.97;5068256;28;20044;-59
2023/01/09 06:18:06;;;;;;;4.65;2.42;;;;;;;4.21;80.76;97892.28;5062769;28;20048;-59
2023/01/09 06:20:33;;;;;;;4.57;1.63;;;;;;;4.21;80.57;97896.53;5065192;28;20040;-60
2023/01/09 06:23:00;;;;;;;1.42;1.33;;;;;;;4.18;80.57;97902.56;5060964;28;20102;-60
2023/01/09 06:25:26;;;;;;;3.90;1.58;;;;;;;4.18;80.68;97902.56;5061044;28;20118;-59
2023/01/09 06:27:53;;;;;;;5.03;1.42;;;;;;;4.17;80.85;97910.25;5062391;28;20052;-60
2023/01/09 06:30:19;;;;;;;2.80;2.03;;;;;;;4.17;80.42;97917.94;5062306;28;20130;-59
2023/01/09 06:32:48;;;;;;;6.32;1.98;;;;;;;4.18;80.67;97917.06;5067626;28;20082;-59
2023/01/09 06:35:19;;;;;;;7.95;1.63;;;;;;;4.16;80.33;97929.06;5063682;28;20048;-59
2023/01/09 06:37:47;;;;;;;3.85;1.20;;;;;;;4.11;81.17;97929.97;5049956;28;20045;-61
2023/01/09 06:40:14;;;;;;;6.13;1.65;;;;;;;4.13;80.43;97934.22;5063391;28;20140;-59
2023/01/09 06:42:43;;;;;;;4.82;1.52;;;;;;;4.11;80.87;97936.78;5068520;28;20082;-59
2023/01/09 06:45:11;;;;;;;6.25;1.55;;;;;;;4.10;80.38;97946.22;5062543;28;20157;-59
2023/01/09 06:47:38;;;;;;;3.72;2.25;;;;;;;4.09;80.68;97947.06;5061571;28;20076;-60
2023/01/09 06:50:06;;;;;;;2.60;2.13;;;;;;;4.08;80.54;97952.19;5069168;28;20058;-59
2023/01/09 06:52:32;;;;;;;4.55;1.77;;;;;;;4.09;80.91;97961.59;5067536;28;20044;-59
2023/01/09 06:54:59;;;;;;;4.63;1.77;;;;;;;4.07;80.94;97956.47;5067416;28;20044;-59
2023/01/09 06:57:26;;;;;;;2.92;1.83;;;;;;;4.07;80.64;97964.16;5070349;28;20052;-59
2023/01/09 06:59:53;;;;;;;5.68;2.03;;;;;;;4.06;80.79;97967.56;5063898;28;20118;-59
2023/01/09 07:02:20;;;;;;;3.35;1.63;;;;;;;4.08;80.59;97973.53;5063165;28;20155;-59
2023/01/09 07:04:47;;;;;;;4.63;1.83;;;;;;;4.06;80.68;97979.56;5062937;28;20072;-59
2023/01/09 07:07:14;;;;;;;3.30;1.90;;;;;;;4.05;80.56;97975.31;5055679;28;20041;-59
2023/01/09 07:09:40;;;;;;;9.82;3.05;;;;;;;4.04;80.87;97977.00;5056355;28;20143;-60
2023/01/09 07:12:07;;;;;;;5.28;2.05;;;;;;;4.04;80.78;97977.00;5058377;28;20068;-59
2023/01/09 07:14:33;;;;;;;2.97;1.63;;;;;;;4.05;80.64;97983.81;5058424;28;20048;-60
2023/01/09 07:17:00;;;;;;;5.07;1.70;;;;;;;4.01;81.13;97987.28;5056880;28;20163;-59
2023/01/09 07:19:27;;;;;;;5.88;1.50;;;;;;;4.04;80.78;97979.56;5058149;28;20140;-60
2023/01/09 07:21:53;;;;;;;9.77;2.58;;;;;;;4.07;80.97;97989.78;5060827;28;20488;-59
2023/01/09 07:24:20;;;;;;;3.58;2.97;;;;;;;4.10;80.78;97991.47;5057739;28;20151;-59
2023/01/09 07:26:46;;;;;;;2.33;0.47;;;;;;;4.10;80.86;98002.56;5063607;28;21064;-60
2023/01/09 07:29:13;;;;;;;6.80;2.38;;;;;;;4.15;80.74;98006.81;5058192;28;20095;-59
2023/01/09 07:31:39;;;;;;;4.10;1.48;;;;;;;4.17;80.90;98005.06;5055946;28;20111;-59
2023/01/09 07:34:06;;;;;;;5.25;1.70;;;;;;;4.21;80.85;98009.28;5054940;28;20040;-59
2023/01/09 07:36:33;;;;;;;7.15;1.90;;;;;;;4.24;80.45;98009.25;5055152;28;20048;-60
2023/01/09 07:38:59;;;;;;;5.25;1.55;;;;;;;4.24;80.98;98004.13;5057623;28;20036;-60
2023/01/09 07:41:26;;;;;;;2.45;1.67;;;;;;;4.24;80.95;98006.69;5058617;28;20052;-60
2023/01/09 07:43:52;;;;;;;4.68;1.55;;;;;;;4.24;80.73;98009.25;5065620;28;20091;-59
2023/01/09 07:46:19;;;;;;;7.15;1.60;;;;;;;4.25;80.54;98005.81;5073327;28;20098;-59
2023/01/09 07:48:46;;;;;;;4.32;1.52;;;;;;;4.25;80.73;98016.09;5063819;28;20135;-59
2023/01/09 07:51:12;;;;;;;6.88;1.55;;;;;;;4.25;80.91;98026.34;5071539;28;20079;-60
2023/01/09 07:53:39;;;;;;;5.60;1.70;;;;;;;4.24;80.59;98034.88;5062846;28;20114;-60
2023/01/09 07:56:06;;;;;;;4.38;1.52;;;;;;;4.25;80.62;98039.16;5060716;28;20091;-60
2023/01/09 07:58:32;;;;;;;2.90;1.77;;;;;;;4.27;80.64;98059.63;5062128;28;20045;-60
2023/01/09 08:00:59;;;;;;;2.38;1.67;;;;;;;4.28;80.59;98059.63;5064650;28;20504;-60
2023/01/09 08:03:26;;;;;;;9.75;1.92;;;;;;;4.32;80.56;98068.16;5064717;28;20075;-59
2023/01/09 08:05:52;;;;;;;4.43;2.08;;;;;;;4.33;80.58;98075.81;5068002;28;20044;-59
2023/01/09 08:08:19;;;;;;;8.02;2.72;;;;;;;4.37;80.61;98077.50;5062269;28;20047;-60
2023/01/09 08:10:45;;;;;;;6.10;1.92;;;;;;;4.42;80.64;98094.53;5063688;28;20071;-59
2023/01/09 08:13:12;;;;;;;7.60;1.95;;;;;;;4.41;81.19;98093.69;5064878;28;20099;-60
2023/01/09 08:15:39;;;;;;;6.85;1.48;;;;;;;4.43;80.70;98102.19;5061595;28;20110;-60
2023/01/09 08:18:05;;;;;;;3.70;1.52;;;;;;;4.46;80.51;98098.78;5063973;28;20048;-60
2023/01/09 08:20:32;;;;;;;4.13;1.52;;;;;;;4.49;80.83;98107.28;5064859;28;20056;-59
2023/01/09 08:22:58;;;;;;;6.43;2.17;;;;;;;4.58;80.98;98119.16;5062508;28;20106;-60
2023/01/09 08:25:25;;;;;;;7.75;2.35;;;;;;;4.63;80.68;98119.97;5061725;28;20143;-59
2023/01/09 08:27:51;;;;;;;4.78;3.97;;;;;;;4.67;81.02;98114.81;5063498;28;20041;-60
2023/01/09 08:30:18;;;;;;;15.80;5.85;;;;;;;4.69;81.05;98125.91;5063017;28;20098;-59
2023/01/09 08:32:50;;;;;;;14.05;5.72;;;;;;;4.71;80.46;98126.75;5068325;28;20067;-59
2023/01/09 08:35:17;;;;;;;3.67;3.15;;;;;;;4.78;80.86;98138.63;5056707;28;20082;-59
2023/01/09 08:37:46;;;;;;;5.20;3.17;;;;;;;4.79;80.67;98150.59;5060560;28;20051;-59
2023/01/09 08:40:13;;;;;;;16.10;7.97;;;;;;;4.88;80.94;98159.91;5067641;28;20064;-60
2023/01/09 08:48:14;;;;;;;4.63;2.08;;;;;;;5.42;80.06;98176.44;5050762;28;20041;-61
2023/01/09 08:50:42;;;;;;;3.17;1.58;;;;;;;5.50;80.62;98181.47;5073165;28;20044;-60
2023/01/09 08:53:09;;;;;;;4.32;1.98;;;;;;;5.56;80.24;98194.25;5066168;28;20056;-60
2023/01/09 08:55:36;;;;;;;3.03;2.15;;;;;;;5.57;80.35;98195.94;5066957;28;20124;-60
2023/01/09 08:58:02;;;;;;;4.20;1.95;;;;;;;5.58;79.59;98207.94;5062259;28;20048;-59
2023/01/09 09:00:29;;;;;;;2.28;1.45;;;;;;;5.60;79.22;98205.31;5066255;28;20103;-60
2023/01/09 09:02:59;;;;;;;2.08;1.50;;;;;;;5.57;79.50;98206.22;5066619;28;20056;-59
2023/01/09 09:05:27;;;;;;;5.85;1.52;;;;;;;5.58;79.28;98215.63;5051132;28;20128;-60
2023/01/09 09:07:54;;;;;;;3.50;1.75;;;;;;;5.56;80.23;98219.94;5069276;28;20557;-59
2023/01/09 09:10:23;;;;;;;3.08;1.73;;;;;;;5.59;79.85;98225.03;5070976;28;20067;-59
2023/01/09 09:12:52;;;;;;;3.00;1.48;;;;;;;5.64;79.83;98230.13;5067037;28;20537;-60
2023/01/09 09:15:23;;;;;;;6.85;1.02;;;;;;;5.71;79.12;98238.59;5066586;28;20484;-59
2023/01/09 09:17:53;;;;;;;7.18;2.03;;;;;;;5.81;80.26;98249.63;5063245;28;20088;-59
2023/01/09 09:20:21;;;;;;;4.53;1.20;;;;;;;5.82;79.68;98254.75;5062896;28;20452;-60
2023/01/09 09:22:49;;;;;;;5.38;1.75;;;;;;;5.95;80.33;98265.72;5069246;28;20071;-60
2023/01/09 09:25:17;;;;;;;2.42;2.00;;;;;;;6.69;79.53;98276.69;5064708;28;20044;-60
2023/01/09 09:27:44;;;;;;;2.55;1.63;;;;;;;7.44;79.06;98278.00;5067576;28;20073;-60
2023/01/09 09:30:13;;;;;;;3.47;1.58;;;;;;;7.97;77.71;98289.03;5070080;28;20048;-60
2023/01/09 09:32:40;;;;;;;3.60;1.58;;;;;;;8.34;76.33;98287.41;5066962;28;20056;-60
2023/01/09 09:35:08;;;;;;;2.10;1.67;;;;;;;8.31;72.43;98297.81;5065062;28;20049;-60
2023/01/09 09:37:35;;;;;;;2.13;1.48;;;;;;;7.98;71.75;98301.91;5061442;28;20098;-59
2023/01/09 09:40:04;;;;;;;1.48;1.38;;;;;;;7.67;71.84;98317.97;5067039;28;20056;-59
2023/01/09 09:46:08;;;;;;;1.75;0.50;;;;;;;7.14;73.47;98328.34;5044042;28;20886;-60
2023/01/09 09:48:37;;;;;;;0.90;0.77;;;;;;;7.29;73.58;98347.81;5019826;28;20408;-59
2023/01/09 09:51:19;;;;;;;0.80;0.30;;;;;;;7.48;73.00;98361.25;5044277;28;20056;-59
2023/01/09 09:54:10;;;;;;;0.73;0.47;;;;;;;7.43;72.61;98366.47;5016057;28;20038;-59
2023/01/09 09:56:59;;;;;;;0.90;0.40;;;;;;;7.40;72.84;98373.44;5035296;28;20106;-60
2023/01/09 09:59:31;;;;;;;1.23;0.68;;;;;;;7.38;73.92;98385.47;5037977;28;20087;-59
2023/01/09 10:02:02;;;;;;;1.20;0.55;;;;;;;7.36;73.32;98395.78;5023516;28;20038;-58
2023/01/09 10:04:34;;;;;;;1.70;0.47;;;;;;;7.49;75.05;98395.63;5014709;28;20137;-58
2023/01/09 10:07:08;;;;;;;2.13;0.70;;;;;;;7.60;74.04;98409.13;5018153;28;20069;-58
2023/01/09 10:09:54;;;;;;;1.88;0.52;;;;;;;7.73;74.89;98414.94;5012192;28;20052;-59
2023/01/09 10:15:14;;;;;;;1.42;0.40;;;;;;;7.93;74.17;98427.47;5059084;27;20383;-59
2023/01/09 10:23:40;;;;;;;2.17;0.38;;;;;;;9.13;73.16;98453.47;5024490;28;20902;-59
2023/01/09 10:39:34;;;;;;;2.53;2.33;;;;;;;12.52;68.44;98498.25;5047707;27;20403;-60
2023/01/09 10:42:10;;;;;;;2.60;1.77;;;;;;;12.58;66.35;98500.66;4980689;28;20113;-60
2023/01/09 10:44:47;;;;;;;8.30;3.13;;;;;;;12.06;65.48;98501.53;5003438;28;20101;-60
2023/01/09 10:47:17;;;;;;;7.75;3.58;;;;;;;11.60;66.34;98510.81;4999389;28;20184;-60
2023/01/09 10:49:46;;;;;;;22.83;8.57;;;;;;;11.15;66.48;98513.03;5000107;28;20049;-60
2023/01/09 10:52:17;;;;;;;7.35;2.80;;;;;;;10.84;66.93;98519.13;5000233;28;20470;-60
2023/01/09 10:55:24;;;;;;;7.10;2.95;;;;;;;10.61;67.41;98512.84;5033758;28;20136;-60
2023/01/09 10:58:00;;;;;;;2.33;1.70;;;;;;;10.52;67.45;98519.97;5006983;28;20042;-59
2023/01/09 11:00:27;;;;;;;3.15;2.15;;;;;;;10.39;66.91;98513.38;5000077;28;20050;-60
2023/01/09 11:02:54;;;;;;;8.85;2.05;;;;;;;10.29;67.85;98513.63;5002181;28;20061;-60
2023/01/09 11:05:25;;;;;;;2.22;1.35;;;;;;;10.10;67.28;98522.75;4998838;28;20048;-60
2023/01/09 11:08:00;;;;;;;3.95;1.77;;;;;;;9.99;67.14;98526.44;5000543;28;20058;-60
2023/01/09 11:10:49;;;;;;;2.22;1.73;;;;;;;9.82;66.22;98523.41;5001392;28;20108;-61
2023/01/09 11:16:16;;;;;;;0.75;0.50;;;;;;;9.55;66.92;98536.13;5034240;28;20406;-60
2023/01/09 11:18:54;;;;;;;3.38;0.65;;;;;;;9.42;67.63;98546.72;5001659;28;20054;-60
2023/01/09 11:21:40;;;;;;;0.95;0.55;;;;;;;9.34;68.12;98544.34;5003245;28;20056;-60
2023/01/09 11:24:27;;;;;;;2.28;0.47;;;;;;;9.33;68.54;98542.63;5020583;28;20048;-60
2023/01/09 11:27:22;;;;;;;4.82;0.63;;;;;;;9.35;69.15;98545.16;5017645;28;20049;-60
2023/01/09 11:30:26;;;;;;;4.18;0.80;;;;;;;9.30;68.66;98547.00;5037459;28;20049;-59
2023/01/09 11:32:55;;;;;;;6.55;1.73;;;;;;;9.30;68.12;98547.00;5011571;28;20108;-60
2023/01/09 11:35:26;;;;;;;9.55;3.30;;;;;;;9.28;68.38;98551.38;5015923;28;20099;-59
2023/01/09 11:40:45;;;;;;;4.53;1.27;;;;;;;9.41;66.80;98534.69;5034003;27;20427;-60
2023/01/09 11:43:18;;;;;;;4.43;1.33;;;;;;;9.19;67.45;98547.25;5029390;28;20545;-60
2023/01/09 11:45:50;;;;;;;2.85;0.50;;;;;;;9.09;66.58;98544.00;5010774;28;20402;-59
2023/01/09 11:51:17;;;;;;;1.40;0.88;;;;;;;9.06;66.85;98544.94;5043912;28;20394;-60
2023/01/09 11:53:58;;;;;;;3.92;0.60;;;;;;;9.12;66.77;98554.28;5026918;28;20084;-60
2023/01/09 11:56:24;;;;;;;2.60;0.93;;;;;;;9.18;66.22;98553.31;5018540;28;20073;-60
2023/01/09 11:58:51;;;;;;;3.65;0.60;;;;;;;9.29;65.63;98556.47;5019722;28;20099;-60
2023/01/09 12:12:50;;;;;;;4.53;0.30;;;;;;;8.65;66.77;98575.81;5028985;28;20401;-60
2023/01/09 12:15:47;;;;;;;5.05;1.05;;;;;;;8.58;66.78;98589.75;4994063;28;20050;-60
2023/01/09 12:26:42;;;;;;;1.38;0.65;;;;;;;8.55;66.39;98595.78;5061724;28;20399;-60
2023/01/09 12:38:12;;;;;;;2.63;0.93;;;;;;;8.29;66.81;98627.16;5061815;27;20419;-60
2023/01/09 12:46:09;;;;;;;11.00;2.08;;;;;;;8.59;66.00;98637.88;5047646;27;20407;-60
2023/01/09 12:51:52;;;;;;;7.28;1.23;;;;;;;8.33;65.76;98641.72;5054768;27;20763;-60
2023/01/09 12:54:35;;;;;;;3.33;2.30;;;;;;;8.23;65.44;98656.50;5013897;28;20516;-60
2023/01/09 12:57:11;;;;;;;3.28;0.65;;;;;;;8.17;65.06;98656.59;5021416;28;20085;-59
2023/01/09 12:59:44;;;;;;;3.20;2.53;;;;;;;8.18;66.33;98660.88;5019939;28;20066;-60
2023/01/09 13:05:23;;;;;;;4.13;0.50;;;;;;;7.95;65.33;98675.81;5070354;27;20403;-60
2023/01/09 13:07:57;;;;;;;1.75;0.68;;;;;;;8.02;66.40;98686.88;5051297;28;20134;-60
2023/01/09 13:10:29;;;;;;;2.45;0.30;;;;;;;8.00;65.87;98692.94;5078137;28;20048;-60
2023/01/09 13:13:05;;;;;;;3.65;0.63;;;;;;;7.96;65.76;98708.47;5094945;28;20139;-60
2023/01/09 13:15:41;;;;;;;1.10;0.35;;;;;;;7.85;65.19;98707.75;5093406;28;20044;-61
2023/01/09 13:18:19;;;;;;;4.78;0.80;;;;;;;7.92;64.70;98714.53;5089431;28;20558;-60
2023/01/09 13:20:49;;;;;;;3.20;1.42;;;;;;;7.85;65.86;98718.06;5096358;28;20705;-60
2023/01/09 13:23:56;;;;;;;3.40;0.82;;;;;;;7.83;65.32;98735.25;5095446;28;20039;-60
2023/01/09 13:29:25;;;;;;;3.15;1.88;;;;;;;7.75;65.98;98747.38;5000738;28;20407;-60
2023/01/09 13:34:34;;;;;;;4.22;0.73;;;;;;;7.71;65.52;98752.56;5120868;27;20675;-60
2023/01/09 13:37:02;;;;;;;7.80;1.58;;;;;;;7.65;66.51;98747.50;5083791;28;20043;-60
2023/01/09 13:39:31;;;;;;;5.10;0.60;;;;;;;7.58;65.58;98748.44;5069738;27;20104;-61
2023/01/09 13:44:51;;;;;;;7.85;0.95;;;;;;;7.45;65.90;98756.31;5074477;28;20473;-59
2023/01/09 13:47:24;;;;;;;6.63;0.70;;;;;;;7.35;65.51;98749.56;5072542;28;20146;-60
2023/01/09 13:52:38;;;;;;;4.82;0.85;;;;;;;7.31;66.17;98773.63;5037404;27;20411;-60
2023/01/09 14:03:24;;;;;;;6.78;1.95;;;;;;;7.14;66.11;98800.41;5061743;27;20393;-60
2023/01/09 14:08:29;;;;;;;6.70;1.30;;;;;;;7.14;65.69;98815.88;5042307;28;20400;-60